createdAt,value
2017-07-06T00:00:41.331Z,89.50
2017-07-06T00:03:08.912Z,89.40
2017-07-06T00:05:36.478Z,90.30
2017-07-06T00:08:04.889Z,90.90
2017-07-06T00:10:32.466Z,90.90
2017-07-06T00:13:00.121Z,90.70
2017-07-06T00:15:27.720Z,91.30
2017-07-06T00:17:55.308Z,91.20
2017-07-06T00:20:23.644Z,90.70
2017-07-06T00:22:51.217Z,90.70
2017-07-06T00:25:18.775Z,90.90
2017-07-06T00:27:46.362Z,90.90
2017-07-06T00:30:14.855Z,91.90
2017-07-06T00:32:42.447Z,91.60
2017-07-06T00:35:10.226Z,91.40
2017-07-06T00:37:37.805Z,92.10
2017-07-06T00:40:05.400Z,91.10
2017-07-06T00:42:33.845Z,91.50
2017-07-06T00:45:01.402Z,91.40
2017-07-06T00:47:28.996Z,91.80
2017-07-06T00:49:56.585Z,91.40
2017-07-06T00:52:24.923Z,91.80
2017-07-06T00:54:52.778Z,91.80
2017-07-06T00:57:20.342Z,91.80
2017-07-06T00:59:48.210Z,91.60
2017-07-06T01:02:15.803Z,92.10
2017-07-06T01:04:43.403Z,91.90
2017-07-06T01:07:10.978Z,92.50
2017-07-06T01:09:38.698Z,92.30
2017-07-06T01:12:06.266Z,92.30
2017-07-06T01:14:34.607Z,92.10
2017-07-06T01:17:02.170Z,92.10
2017-07-06T01:19:29.739Z,92.20
2017-07-06T01:21:57.342Z,92.20
2017-07-06T01:24:25.670Z,92.70
2017-07-06T01:26:53.267Z,92.70
2017-07-06T01:29:20.830Z,92.80
2017-07-06T01:31:49.167Z,93.50
2017-07-06T01:34:16.751Z,93.50
2017-07-06T01:36:44.308Z,92.80
2017-07-06T01:39:11.878Z,93.20
2017-07-06T01:41:39.439Z,93.90
2017-07-06T01:44:07.010Z,93.50
2017-07-06T01:46:34.575Z,93.60
2017-07-06T01:49:02.176Z,93.70
2017-07-06T01:51:29.754Z,93.60
2017-07-06T01:53:57.323Z,93.70
2017-07-06T01:56:25.086Z,94.40
2017-07-06T01:58:52.668Z,94.30
2017-07-06T02:01:20.231Z,95.10
2017-07-06T02:03:47.820Z,95.30
2017-07-06T02:06:16.242Z,95.30
2017-07-06T02:08:43.927Z,95.50
2017-07-06T02:11:11.534Z,95.60
2017-07-06T02:13:39.140Z,95.20
2017-07-06T02:16:06.735Z,95.70
2017-07-06T02:18:34.306Z,96.10
2017-07-06T02:21:01.906Z,97.00
2017-07-06T02:23:29.482Z,97.30
2017-07-06T02:25:57.039Z,96.70
2017-07-06T02:28:24.633Z,97.20
2017-07-06T02:30:52.222Z,97.10
2017-07-06T02:33:19.806Z,96.40
2017-07-06T02:35:48.135Z,95.90
2017-07-06T02:38:15.699Z,95.70
2017-07-06T02:40:43.276Z,97.00
2017-07-06T02:43:10.819Z,97.30
2017-07-06T02:45:38.405Z,96.50
2017-07-06T02:48:06.026Z,97.10
2017-07-06T02:50:33.595Z,96.50
2017-07-06T02:53:01.193Z,95.70
2017-07-06T02:55:28.799Z,96.90
2017-07-06T02:57:56.384Z,97.20
2017-07-06T03:00:23.942Z,97.70
2017-07-06T03:02:51.545Z,96.40
2017-07-06T03:05:19.117Z,97.20
2017-07-06T03:07:48.180Z,98.00
2017-07-06T03:10:15.763Z,97.90
2017-07-06T03:12:43.323Z,97.10
2017-07-06T03:15:10.908Z,97.40
2017-07-06T03:17:39.277Z,98.10
2017-07-06T03:20:06.839Z,98.00
2017-07-06T03:22:34.434Z,97.00
2017-07-06T03:25:02.002Z,97.10
2017-07-06T03:27:29.595Z,97.50
2017-07-06T03:29:57.179Z,97.20
2017-07-06T03:32:24.741Z,97.60
2017-07-06T03:34:52.326Z,97.10
2017-07-06T03:37:20.680Z,97.60
2017-07-06T03:39:48.264Z,97.60
2017-07-06T03:42:16.668Z,97.90
2017-07-06T03:44:44.230Z,97.90
2017-07-06T03:47:11.810Z,96.60
2017-07-06T03:49:39.422Z,95.80
2017-07-06T03:52:07.007Z,96.10
2017-07-06T03:54:35.335Z,95.90
2017-07-06T03:57:02.935Z,95.80
2017-07-06T03:59:31.276Z,97.30
2017-07-06T04:01:58.860Z,97.30
2017-07-06T04:04:26.431Z,97.40
2017-07-06T04:06:54.067Z,97.30
2017-07-06T04:09:21.680Z,97.10
2017-07-06T04:11:50.004Z,97.10
2017-07-06T04:14:17.595Z,97.10
2017-07-06T04:16:45.159Z,96.30
2017-07-06T04:19:12.757Z,96.30
2017-07-06T04:21:40.338Z,95.70
2017-07-06T04:24:07.891Z,96.40
2017-07-06T04:26:35.483Z,95.00
2017-07-06T04:29:03.076Z,95.60
2017-07-06T04:31:31.407Z,94.50
2017-07-06T04:33:58.970Z,94.20
2017-07-06T04:36:26.667Z,94.40
2017-07-06T04:38:54.219Z,95.40
2017-07-06T04:41:21.791Z,94.90
2017-07-06T04:43:49.367Z,95.20
2017-07-06T04:46:17.710Z,93.90
2017-07-06T04:48:45.296Z,94.10
2017-07-06T04:51:12.859Z,94.00
2017-07-06T04:53:40.451Z,93.70
2017-07-06T04:56:08.790Z,93.10
2017-07-06T04:58:36.507Z,93.10
2017-07-06T05:01:04.856Z,92.50
2017-07-06T05:03:32.418Z,92.40
2017-07-06T05:05:59.991Z,92.60
2017-07-06T05:08:28.374Z,92.20
2017-07-06T05:10:56.723Z,91.70
2017-07-06T05:13:24.335Z,91.60
2017-07-06T05:15:51.918Z,91.50
2017-07-06T05:18:19.491Z,91.10
2017-07-06T05:20:47.067Z,90.50
2017-07-06T05:23:14.656Z,90.10
2017-07-06T05:25:42.215Z,87.40
2017-07-06T05:28:09.787Z,87.20
2017-07-06T05:30:38.110Z,79.60
2017-07-06T05:33:05.675Z,79.50
2017-07-06T05:35:33.244Z,77.20
2017-07-06T05:38:00.835Z,73.00
2017-07-06T05:40:28.435Z,68.30
2017-07-06T05:42:56.958Z,66.90
2017-07-06T05:45:24.656Z,66.90
2017-07-06T05:47:52.234Z,66.00
2017-07-06T05:50:20.679Z,65.80
2017-07-06T05:52:49.385Z,65.00
2017-07-06T05:55:16.942Z,62.70
2017-07-06T05:57:44.513Z,58.30
2017-07-06T06:00:12.087Z,61.10
2017-07-06T06:02:40.431Z,60.30
2017-07-06T06:05:08.171Z,60.10
2017-07-06T06:07:35.750Z,56.30
2017-07-06T06:10:03.344Z,56.80
2017-07-06T06:12:30.905Z,57.20
2017-07-06T06:14:58.494Z,57.10
2017-07-06T06:17:26.102Z,56.20
2017-07-06T06:19:53.671Z,54.10
2017-07-06T06:22:21.238Z,52.80
2017-07-06T06:24:48.819Z,50.50
2017-07-06T06:27:16.506Z,51.10
2017-07-06T06:29:44.305Z,50.70
2017-07-06T06:32:11.967Z,51.30
2017-07-06T06:34:39.562Z,50.10
2017-07-06T06:37:07.131Z,48.50
2017-07-06T06:39:34.711Z,48.40
2017-07-06T06:42:03.050Z,49.90
2017-07-06T06:44:30.637Z,49.90
2017-07-06T06:46:58.215Z,51.00
2017-07-06T06:49:26.602Z,46.50
2017-07-06T06:51:54.952Z,43.90
2017-07-06T06:54:22.537Z,43.80
2017-07-06T06:56:50.884Z,44.10
2017-07-06T06:59:18.478Z,43.40
2017-07-06T07:01:46.045Z,43.90
2017-07-06T07:04:14.386Z,43.00
2017-07-06T07:06:41.984Z,42.30
2017-07-06T07:09:09.803Z,42.60
2017-07-06T07:11:37.375Z,40.90
2017-07-06T07:14:04.977Z,43.50
2017-07-06T07:16:32.675Z,42.00
2017-07-06T07:19:00.234Z,43.50
2017-07-06T07:21:27.815Z,43.60
2017-07-06T07:23:55.398Z,43.90
2017-07-06T07:26:22.970Z,41.60
2017-07-06T07:28:50.534Z,42.90
2017-07-06T07:31:18.105Z,42.40
2017-07-06T07:33:45.665Z,43.40
2017-07-06T07:36:13.242Z,41.20
2017-07-06T07:38:41.575Z,40.30
2017-07-06T07:41:09.151Z,40.40
2017-07-06T07:43:36.702Z,39.80
2017-07-06T07:46:04.282Z,39.90
2017-07-06T07:48:31.871Z,40.60
2017-07-06T07:50:59.433Z,38.90
2017-07-06T07:53:27.025Z,37.00
2017-07-06T07:55:54.589Z,36.50
2017-07-06T07:58:22.270Z,37.30
2017-07-06T08:00:49.843Z,36.10
2017-07-06T08:03:17.450Z,37.50
2017-07-06T08:05:45.783Z,39.30
2017-07-06T08:08:13.379Z,39.20
2017-07-06T08:10:41.018Z,40.20
2017-07-06T08:13:08.579Z,40.70
2017-07-06T08:15:36.172Z,39.50
2017-07-06T08:18:03.760Z,41.30
2017-07-06T08:20:32.121Z,39.90
2017-07-06T08:22:59.689Z,40.50
2017-07-06T08:25:27.263Z,41.40
2017-07-06T08:27:54.848Z,40.30
2017-07-06T08:30:22.402Z,38.60
2017-07-06T08:32:49.989Z,36.50
2017-07-06T08:35:17.553Z,35.90
2017-07-06T08:37:45.160Z,38.00
2017-07-06T08:40:12.879Z,41.50
2017-07-06T08:42:40.453Z,44.70
2017-07-06T08:45:08.029Z,45.30
2017-07-06T08:47:35.592Z,43.20
2017-07-06T08:50:03.167Z,42.30
2017-07-06T08:52:30.756Z,42.60
2017-07-06T08:54:59.200Z,42.40
2017-07-06T08:57:26.887Z,42.40
2017-07-06T08:59:54.451Z,40.20
2017-07-06T09:02:22.821Z,39.00
2017-07-06T09:04:50.410Z,39.00
2017-07-06T09:07:18.783Z,38.60
2017-07-06T09:09:46.349Z,38.00
2017-07-06T09:12:13.901Z,35.60
2017-07-06T09:14:41.468Z,36.60
2017-07-06T09:17:09.151Z,36.30
2017-07-06T09:19:37.492Z,37.80
2017-07-06T09:22:05.084Z,37.80
2017-07-06T09:24:33.423Z,37.80
2017-07-06T09:27:01.269Z,37.80
2017-07-06T09:29:28.850Z,36.50
2017-07-06T09:31:56.440Z,35.00
2017-07-06T09:34:24.022Z,31.80
2017-07-06T09:36:51.580Z,35.80
2017-07-06T09:39:19.170Z,38.40
2017-07-06T09:41:46.740Z,37.40
2017-07-06T09:44:14.302Z,36.20
2017-07-06T09:46:41.891Z,36.70
2017-07-06T09:49:09.474Z,36.20
2017-07-06T09:51:37.091Z,35.50
2017-07-06T09:54:04.630Z,35.60
2017-07-06T09:56:32.986Z,32.80
2017-07-06T09:59:00.542Z,32.80
2017-07-06T10:01:28.116Z,32.90
2017-07-06T10:03:55.753Z,33.70
2017-07-06T10:06:23.351Z,33.00
2017-07-06T10:08:51.713Z,32.20
2017-07-06T10:11:19.267Z,31.70
2017-07-06T10:13:46.858Z,30.20
2017-07-06T10:16:14.809Z,30.00
2017-07-06T10:18:42.442Z,30.00
2017-07-06T10:21:10.064Z,29.20
2017-07-06T10:23:37.651Z,30.40
2017-07-06T10:26:05.399Z,29.50
2017-07-06T10:28:33.708Z,29.80
2017-07-06T10:31:01.298Z,29.80
2017-07-06T10:33:28.870Z,28.50
2017-07-06T10:35:56.537Z,28.70
2017-07-06T10:38:24.160Z,29.50
2017-07-06T10:40:51.775Z,29.50
2017-07-06T10:43:19.404Z,29.40
2017-07-06T10:45:47.744Z,28.80
2017-07-06T10:48:15.309Z,28.20
2017-07-06T10:50:42.897Z,27.40
2017-07-06T10:53:10.611Z,28.50
2017-07-06T10:55:38.192Z,28.20
2017-07-06T10:58:05.754Z,28.60
2017-07-06T11:00:33.364Z,26.80
2017-07-06T11:03:01.694Z,27.10
2017-07-06T11:05:29.285Z,27.00
2017-07-06T11:07:56.978Z,27.10
2017-07-06T11:10:25.352Z,26.70
2017-07-06T11:12:53.706Z,26.60
2017-07-06T11:15:21.254Z,26.40
2017-07-06T11:17:48.807Z,25.40
2017-07-06T11:20:16.395Z,25.90
2017-07-06T11:22:44.050Z,26.30
2017-07-06T11:25:11.655Z,24.80
2017-07-06T11:27:40.003Z,26.10
2017-07-06T11:30:07.586Z,25.50
2017-07-06T11:32:35.918Z,26.40
2017-07-06T11:35:03.648Z,25.90
2017-07-06T11:37:31.980Z,26.20
2017-07-06T11:39:59.558Z,26.20
2017-07-06T11:42:27.136Z,28.20
2017-07-06T11:44:54.915Z,28.10
2017-07-06T11:47:23.271Z,28.00
2017-07-06T11:49:50.841Z,27.90
2017-07-06T11:52:18.411Z,27.00
2017-07-06T11:54:46.010Z,27.20
2017-07-06T11:57:13.596Z,29.90
2017-07-06T11:59:41.212Z,29.50
2017-07-06T12:02:08.799Z,29.00
2017-07-06T12:04:36.416Z,29.00
2017-07-06T12:07:03.982Z,29.20
2017-07-06T12:09:31.565Z,30.40
2017-07-06T12:11:59.908Z,28.00
2017-07-06T12:14:27.463Z,27.90
2017-07-06T12:16:55.056Z,27.60
2017-07-06T12:19:22.629Z,28.80
2017-07-06T12:21:50.990Z,26.80
2017-07-06T12:24:18.561Z,26.80
2017-07-06T12:26:46.138Z,24.50
2017-07-06T12:29:14.475Z,25.10
2017-07-06T12:31:42.040Z,25.50
2017-07-06T12:34:09.585Z,24.60
2017-07-06T12:36:37.257Z,25.00
2017-07-06T12:39:04.906Z,26.40
2017-07-06T12:41:32.551Z,25.50
2017-07-06T12:44:00.111Z,25.90
2017-07-06T12:46:27.756Z,25.50
2017-07-06T12:48:55.426Z,26.30
2017-07-06T12:51:23.027Z,24.30
2017-07-06T12:53:50.619Z,25.70
2017-07-06T12:56:18.189Z,25.20
2017-07-06T12:58:46.683Z,27.60
2017-07-06T13:01:15.006Z,28.00
2017-07-06T13:03:42.592Z,28.00
2017-07-06T13:06:10.175Z,26.70
2017-07-06T13:08:37.731Z,26.10
2017-07-06T13:11:05.298Z,25.20
2017-07-06T13:13:32.917Z,25.60
2017-07-06T13:16:00.481Z,26.50
2017-07-06T13:18:28.082Z,26.40
2017-07-06T13:20:55.901Z,28.20
2017-07-06T13:23:23.479Z,27.10
2017-07-06T13:25:51.059Z,27.70
2017-07-06T13:28:19.062Z,27.70
2017-07-06T13:30:47.534Z,29.90
2017-07-06T13:33:15.090Z,29.80
2017-07-06T13:35:42.656Z,28.50
2017-07-06T13:38:10.390Z,29.70
2017-07-06T13:40:37.987Z,30.50
2017-07-06T13:43:05.590Z,31.10
2017-07-06T13:45:33.149Z,34.70
2017-07-06T13:48:00.782Z,32.80
2017-07-06T13:50:29.137Z,36.30
2017-07-06T13:52:56.713Z,36.30
2017-07-06T13:55:24.285Z,34.80
2017-07-06T13:57:51.855Z,34.90
2017-07-06T14:00:20.296Z,36.10
2017-07-06T14:02:47.849Z,36.10
2017-07-06T14:05:17.351Z,36.80
2017-07-06T14:07:44.902Z,38.00
2017-07-06T14:10:12.456Z,39.80
2017-07-06T14:12:41.083Z,40.00
2017-07-06T14:15:08.662Z,42.10
2017-07-06T14:17:36.265Z,40.30
2017-07-06T14:20:04.876Z,41.10
2017-07-06T14:22:32.507Z,42.50
2017-07-06T14:25:00.272Z,42.60
2017-07-06T14:27:27.887Z,44.20
2017-07-06T14:29:56.272Z,46.10
2017-07-06T14:32:23.966Z,46.00
2017-07-06T14:34:51.627Z,44.70
2017-07-06T14:37:19.500Z,46.70
2017-07-06T14:39:47.090Z,67.10
2017-07-06T14:42:14.828Z,91.10
2017-07-06T14:44:42.614Z,99.90
2017-07-06T14:47:10.202Z,99.90
2017-07-06T14:49:37.861Z,99.90
2017-07-06T14:52:05.425Z,99.90
2017-07-06T14:54:33.050Z,99.90
2017-07-06T14:57:00.643Z,99.90
2017-07-06T14:59:28.302Z,99.90
2017-07-06T15:01:55.915Z,99.90
2017-07-06T15:04:24.322Z,99.90
2017-07-06T15:06:51.973Z,99.90
2017-07-06T15:09:19.575Z,99.90
2017-07-06T15:11:47.154Z,99.90
2017-07-06T15:14:14.773Z,99.90
2017-07-06T15:16:42.334Z,99.90
2017-07-06T15:19:09.915Z,99.90
2017-07-06T15:21:37.506Z,99.90
2017-07-06T15:24:05.086Z,99.90
2017-07-06T15:26:33.417Z,99.90
2017-07-06T15:29:01.171Z,99.90
2017-07-06T15:31:28.782Z,98.50
2017-07-06T15:33:56.372Z,98.50
2017-07-06T15:36:24.759Z,97.70
2017-07-06T15:38:52.326Z,97.80
2017-07-06T15:41:19.918Z,97.20
2017-07-06T15:43:47.525Z,92.50
2017-07-06T15:46:15.876Z,93.80
2017-07-06T15:48:43.470Z,93.50
2017-07-06T15:51:11.050Z,93.00
2017-07-06T15:53:38.633Z,93.80
2017-07-06T15:56:06.209Z,94.00
2017-07-06T15:58:33.799Z,92.50
2017-07-06T16:01:01.459Z,93.70
2017-07-06T16:03:29.030Z,92.10
2017-07-06T16:05:56.703Z,92.10
2017-07-06T16:08:24.287Z,90.50
2017-07-06T16:10:52.980Z,90.70
2017-07-06T16:13:20.613Z,90.70
2017-07-06T16:15:48.207Z,91.60
2017-07-06T16:18:15.841Z,92.40
2017-07-06T16:20:43.569Z,91.80
2017-07-06T16:23:11.250Z,91.80
2017-07-06T16:25:38.838Z,91.40
2017-07-06T16:28:06.495Z,92.30
2017-07-06T16:30:34.076Z,91.60
2017-07-06T16:33:02.512Z,93.10
2017-07-06T16:35:30.101Z,93.00
2017-07-06T16:37:57.672Z,93.20
2017-07-06T16:40:25.342Z,92.70
2017-07-06T16:42:53.811Z,94.10
2017-07-06T16:45:21.391Z,92.40
2017-07-06T16:47:49.095Z,93.50
2017-07-06T16:50:16.709Z,94.40
2017-07-06T16:52:44.290Z,93.30
2017-07-06T16:55:11.890Z,95.10
2017-07-06T16:57:40.311Z,95.10
2017-07-06T17:00:08.631Z,96.00
2017-07-06T17:02:36.212Z,96.00
2017-07-06T17:05:03.809Z,97.30
2017-07-06T17:07:31.569Z,96.10
2017-07-06T17:10:00.101Z,96.50
2017-07-06T17:12:27.688Z,95.20
2017-07-06T17:14:55.273Z,94.30
2017-07-06T17:17:23.634Z,90.90
2017-07-06T17:19:51.235Z,90.90
2017-07-06T17:22:18.886Z,91.70
2017-07-06T17:24:46.488Z,90.60
2017-07-06T17:27:14.114Z,90.30
2017-07-06T17:29:41.681Z,90.00
2017-07-06T17:32:09.264Z,91.00
2017-07-06T17:34:36.851Z,92.60
2017-07-06T17:37:04.439Z,92.70
2017-07-06T17:39:32.019Z,93.90
2017-07-06T17:42:00.383Z,93.20
2017-07-06T17:44:28.745Z,92.80
2017-07-06T17:46:58.141Z,92.80
2017-07-06T17:49:25.833Z,93.70
2017-07-06T17:51:53.399Z,93.80
2017-07-06T17:54:21.133Z,92.60
2017-07-06T17:56:50.186Z,93.50
2017-07-06T17:59:17.815Z,93.20
2017-07-06T18:01:45.402Z,92.40
2017-07-06T18:04:12.994Z,92.00
2017-07-06T18:06:40.576Z,90.90
2017-07-06T18:09:08.949Z,90.70
2017-07-06T18:11:36.860Z,90.70
2017-07-06T18:14:04.431Z,89.70
2017-07-06T18:16:32.066Z,91.20
2017-07-06T18:18:59.718Z,91.00
2017-07-06T18:21:28.082Z,91.80
2017-07-06T18:23:55.655Z,91.80
2017-07-06T18:26:23.307Z,92.70
2017-07-06T18:28:50.916Z,92.20
2017-07-06T18:31:18.508Z,92.70
2017-07-06T18:33:46.102Z,92.60
2017-07-06T18:36:13.703Z,93.20
2017-07-06T18:38:41.287Z,93.60
2017-07-06T18:41:08.912Z,92.90
2017-07-06T18:43:37.244Z,93.20
2017-07-06T18:46:04.912Z,93.20
2017-07-06T18:48:32.586Z,93.60
2017-07-06T18:51:00.206Z,94.20
2017-07-06T18:53:28.283Z,94.10
2017-07-06T18:55:55.884Z,93.30
2017-07-06T18:58:23.434Z,93.70
2017-07-06T19:00:51.039Z,93.50
2017-07-06T19:03:19.408Z,94.80
2017-07-06T19:05:46.976Z,94.80
2017-07-06T19:08:15.348Z,95.30
2017-07-06T19:10:42.913Z,95.40
2017-07-06T19:13:10.602Z,95.90
2017-07-06T19:15:38.218Z,96.00
2017-07-06T19:18:05.849Z,96.00
2017-07-06T19:20:33.533Z,95.90
2017-07-06T19:23:01.249Z,96.00
2017-07-06T19:25:29.073Z,96.00
2017-07-06T19:27:56.909Z,96.10
2017-07-06T19:30:24.518Z,96.30
2017-07-06T19:32:52.204Z,96.70
2017-07-06T19:35:19.838Z,96.50
2017-07-06T19:37:47.473Z,96.40
2017-07-06T19:40:15.108Z,96.10
2017-07-06T19:42:42.750Z,95.60
2017-07-06T19:45:10.361Z,95.20
2017-07-06T19:47:37.945Z,95.20
2017-07-06T19:50:05.549Z,95.20
2017-07-06T19:52:33.913Z,96.10
2017-07-06T19:55:01.600Z,96.10
2017-07-06T19:57:29.983Z,95.70
2017-07-06T19:59:59.151Z,95.90
2017-07-06T20:02:26.807Z,95.80
2017-07-06T20:04:54.428Z,95.70
2017-07-06T20:07:22.017Z,96.00
2017-07-06T20:09:49.677Z,96.30
2017-07-06T20:12:17.266Z,95.70
2017-07-06T20:14:44.897Z,95.80
2017-07-06T20:17:12.512Z,96.80
2017-07-06T20:19:40.109Z,96.90
2017-07-06T20:22:07.894Z,96.00
2017-07-06T20:24:35.480Z,94.90
2017-07-06T20:27:03.118Z,95.00
2017-07-06T20:29:30.736Z,94.40
2017-07-06T20:31:58.360Z,94.00
2017-07-06T20:37:16.823Z,94.70
2017-07-06T20:39:44.456Z,94.00
2017-07-06T20:42:12.838Z,94.30
2017-07-06T20:44:41.207Z,95.00
2017-07-06T20:47:08.839Z,95.00
2017-07-06T20:49:36.443Z,94.90
2017-07-06T20:52:04.039Z,94.70
2017-07-06T20:54:31.631Z,95.10
2017-07-06T20:56:59.216Z,95.00
2017-07-06T20:59:26.790Z,95.20
2017-07-06T21:01:55.176Z,95.70
2017-07-06T21:04:22.784Z,95.60
2017-07-06T21:06:50.375Z,96.20
2017-07-06T21:09:17.997Z,95.70
2017-07-06T21:11:46.561Z,95.80
2017-07-06T21:14:14.171Z,95.90
2017-07-06T21:16:41.737Z,95.40
2017-07-06T21:19:09.322Z,95.80
2017-07-06T21:21:37.782Z,95.50
2017-07-06T21:24:05.365Z,95.40
2017-07-06T21:26:32.981Z,95.50
2017-07-06T21:29:00.614Z,95.50
2017-07-06T21:31:28.975Z,95.40
2017-07-06T21:33:56.549Z,95.30
2017-07-06T21:36:25.457Z,95.50
2017-07-06T21:38:53.085Z,95.40
2017-07-06T21:41:20.640Z,95.10
2017-07-06T21:43:48.274Z,95.10
2017-07-06T21:46:15.985Z,94.60
2017-07-06T21:48:43.573Z,94.60
2017-07-06T21:51:11.785Z,94.30
2017-07-06T21:53:39.359Z,94.90
2017-07-06T21:56:06.950Z,94.40
2017-07-06T21:58:34.637Z,94.10
2017-07-06T22:01:02.215Z,93.70
2017-07-06T22:03:29.832Z,93.60
2017-07-06T22:05:57.431Z,94.20
2017-07-06T22:08:25.050Z,93.70
2017-07-06T22:10:52.671Z,93.60
2017-07-06T22:13:20.263Z,94.40
2017-07-06T22:15:47.866Z,93.90
2017-07-06T22:18:15.454Z,93.90
2017-07-06T22:20:43.036Z,94.30
2017-07-06T22:23:11.500Z,95.00
2017-07-06T22:25:39.082Z,94.90
2017-07-06T22:28:07.474Z,95.90
2017-07-06T22:30:35.214Z,95.80
2017-07-06T22:33:02.791Z,96.30
2017-07-06T22:35:31.142Z,96.60
2017-07-06T22:37:58.730Z,96.40
2017-07-06T22:40:27.094Z,96.60
2017-07-06T22:42:54.728Z,96.40
2017-07-06T22:45:22.443Z,96.70
2017-07-06T22:47:50.803Z,97.00
2017-07-06T22:50:18.356Z,97.00
2017-07-06T22:52:46.742Z,96.80
2017-07-06T22:55:14.326Z,96.50
2017-07-06T22:57:42.670Z,96.20
2017-07-06T23:00:10.399Z,96.00
2017-07-06T23:02:37.999Z,96.30
2017-07-06T23:05:05.574Z,96.10
2017-07-06T23:07:33.138Z,95.60
2017-07-06T23:10:01.657Z,95.60
2017-07-06T23:12:29.977Z,95.40
2017-07-06T23:14:57.559Z,95.30
2017-07-06T23:17:25.126Z,94.70
2017-07-06T23:19:52.699Z,94.70
2017-07-06T23:22:20.347Z,94.60
2017-07-06T23:24:47.909Z,94.30
2017-07-06T23:27:15.499Z,93.80
2017-07-06T23:29:43.842Z,94.10
2017-07-06T23:32:11.421Z,94.10
2017-07-06T23:34:39.016Z,94.10
2017-07-06T23:37:06.584Z,93.90
2017-07-06T23:39:34.194Z,93.80
2017-07-06T23:42:01.781Z,93.90
2017-07-06T23:44:29.349Z,94.10
2017-07-06T23:46:57.708Z,94.10
2017-07-06T23:49:25.482Z,94.10
2017-07-06T23:51:53.929Z,93.90
2017-07-06T23:54:21.484Z,93.80
2017-07-06T23:56:49.091Z,93.50
2017-07-06T23:59:16.647Z,93.30
